sensor_id;sensor_type;location;lat;lon;timestamp;P1;durP1;ratioP1;P2;durP2;ratioP2
34573;SDS011;20809;49.594;8.734;2023-04-30T00:01:11;8.93;;;7.43;;
34573;SDS011;20809;49.594;8.734;2023-04-30T00:04:11;10.93;;;8.40;;
34573;SDS011;20809;49.594;8.734;2023-04-30T00:07:12;10.80;;;8.77;;
34573;SDS011;20809;49.594;8.734;2023-04-30T00:10:13;10.63;;;7.57;;
34573;SDS011;20809;49.594;8.734;2023-04-30T00:13:14;10.38;;;7.72;;
34573;SDS011;20809;49.594;8.734;2023-04-30T00:16:14;9.80;;;7.77;;
34573;SDS011;20809;49.594;8.734;2023-04-30T00:19:15;9.82;;;7.72;;
34573;SDS011;20809;49.594;8.734;2023-04-30T00:22:16;11.23;;;8.75;;
34573;SDS011;20809;49.594;8.734;2023-04-30T00:25:16;8.87;;;7.63;;
34573;SDS011;20809;49.594;8.734;2023-04-30T00:28:17;11.88;;;8.82;;
34573;SDS011;20809;49.594;8.734;2023-04-30T00:31:18;10.93;;;8.73;;
34573;SDS011;20809;49.594;8.734;2023-04-30T00:34:18;10.02;;;8.48;;
34573;SDS011;20809;49.594;8.734;2023-04-30T00:37:19;12.90;;;9.07;;
34573;SDS011;20809;49.594;8.734;2023-04-30T00:40:20;11.38;;;8.50;;
34573;SDS011;20809;49.594;8.734;2023-04-30T00:43:20;10.25;;;8.55;;
34573;SDS011;20809;49.594;8.734;2023-04-30T00:46:21;9.75;;;8.23;;
34573;SDS011;20809;49.594;8.734;2023-04-30T00:49:22;9.93;;;7.93;;
34573;SDS011;20809;49.594;8.734;2023-04-30T00:52:23;14.80;;;7.85;;
34573;SDS011;20809;49.594;8.734;2023-04-30T00:59:12;9.90;;;8.52;;
34573;SDS011;20809;49.594;8.734;2023-04-30T01:02:13;9.85;;;8.00;;
34573;SDS011;20809;49.594;8.734;2023-04-30T01:05:14;9.13;;;8.00;;
34573;SDS011;20809;49.594;8.734;2023-04-30T01:08:15;9.85;;;8.43;;
34573;SDS011;20809;49.594;8.734;2023-04-30T01:14:50;10.82;;;7.68;;
34573;SDS011;20809;49.594;8.734;2023-04-30T01:21:30;10.55;;;7.93;;
34573;SDS011;20809;49.594;8.734;2023-04-30T01:31:02;10.73;;;8.77;;
34573;SDS011;20809;49.594;8.734;2023-04-30T01:34:11;12.57;;;8.45;;
34573;SDS011;20809;49.594;8.734;2023-04-30T01:41:08;11.98;;;8.57;;
34573;SDS011;20809;49.594;8.734;2023-04-30T01:44:35;10.18;;;7.85;;
34573;SDS011;20809;49.594;8.734;2023-04-30T01:54:53;9.77;;;8.75;;
34573;SDS011;20809;49.594;8.734;2023-04-30T01:58:00;11.60;;;9.27;;
34573;SDS011;20809;49.594;8.734;2023-04-30T02:01:04;13.45;;;9.45;;
34573;SDS011;20809;49.594;8.734;2023-04-30T02:04:24;9.05;;;8.15;;
34573;SDS011;20809;49.594;8.734;2023-04-30T02:07:35;8.95;;;8.00;;
34573;SDS011;20809;49.594;8.734;2023-04-30T02:10:39;16.48;;;9.85;;
34573;SDS011;20809;49.594;8.734;2023-04-30T02:13:39;12.82;;;9.13;;
34573;SDS011;20809;49.594;8.734;2023-04-30T02:16:40;11.27;;;8.68;;
34573;SDS011;20809;49.594;8.734;2023-04-30T02:19:41;11.48;;;8.48;;
34573;SDS011;20809;49.594;8.734;2023-04-30T02:22:42;12.50;;;9.70;;
34573;SDS011;20809;49.594;8.734;2023-04-30T02:25:43;13.68;;;9.00;;
34573;SDS011;20809;49.594;8.734;2023-04-30T02:28:43;12.57;;;9.65;;
34573;SDS011;20809;49.594;8.734;2023-04-30T02:31:44;13.57;;;9.65;;
34573;SDS011;20809;49.594;8.734;2023-04-30T02:34:45;10.75;;;9.20;;
34573;SDS011;20809;49.594;8.734;2023-04-30T02:37:46;11.40;;;8.85;;
34573;SDS011;20809;49.594;8.734;2023-04-30T02:40:47;12.93;;;9.40;;
34573;SDS011;20809;49.594;8.734;2023-04-30T02:43:47;11.30;;;9.82;;
34573;SDS011;20809;49.594;8.734;2023-04-30T02:46:48;15.27;;;9.70;;
34573;SDS011;20809;49.594;8.734;2023-04-30T02:49:49;13.50;;;9.85;;
34573;SDS011;20809;49.594;8.734;2023-04-30T02:52:50;11.88;;;10.20;;
34573;SDS011;20809;49.594;8.734;2023-04-30T02:55:50;18.23;;;10.32;;
34573;SDS011;20809;49.594;8.734;2023-04-30T02:58:51;11.17;;;9.93;;
34573;SDS011;20809;49.594;8.734;2023-04-30T03:01:52;14.95;;;9.35;;
34573;SDS011;20809;49.594;8.734;2023-04-30T03:04:53;14.15;;;10.65;;
34573;SDS011;20809;49.594;8.734;2023-04-30T03:07:54;13.93;;;10.18;;
34573;SDS011;20809;49.594;8.734;2023-04-30T03:10:55;9.85;;;8.85;;
34573;SDS011;20809;49.594;8.734;2023-04-30T03:13:55;14.00;;;10.20;;
34573;SDS011;20809;49.594;8.734;2023-04-30T03:16:56;12.15;;;9.82;;
34573;SDS011;20809;49.594;8.734;2023-04-30T03:19:56;18.17;;;9.88;;
34573;SDS011;20809;49.594;8.734;2023-04-30T03:22:57;13.00;;;10.05;;
34573;SDS011;20809;49.594;8.734;2023-04-30T03:25:58;12.70;;;10.20;;
34573;SDS011;20809;49.594;8.734;2023-04-30T03:28:59;13.55;;;10.77;;
34573;SDS011;20809;49.594;8.734;2023-04-30T03:32:01;14.05;;;11.15;;
34573;SDS011;20809;49.594;8.734;2023-04-30T03:35:04;14.18;;;10.50;;
34573;SDS011;20809;49.594;8.734;2023-04-30T03:38:05;12.57;;;11.00;;
34573;SDS011;20809;49.594;8.734;2023-04-30T03:41:09;13.60;;;11.13;;
34573;SDS011;20809;49.594;8.734;2023-04-30T03:44:13;17.30;;;11.52;;
34573;SDS011;20809;49.594;8.734;2023-04-30T03:47:14;11.07;;;9.93;;
34573;SDS011;20809;49.594;8.734;2023-04-30T03:50:16;12.93;;;10.63;;
34573;SDS011;20809;49.594;8.734;2023-04-30T03:53:17;14.10;;;11.30;;
34573;SDS011;20809;49.594;8.734;2023-04-30T03:56:18;14.45;;;11.00;;
34573;SDS011;20809;49.594;8.734;2023-04-30T03:59:20;14.20;;;11.15;;
34573;SDS011;20809;49.594;8.734;2023-04-30T04:02:21;15.10;;;11.88;;
34573;SDS011;20809;49.594;8.734;2023-04-30T04:05:22;13.90;;;10.57;;
34573;SDS011;20809;49.594;8.734;2023-04-30T04:08:23;14.50;;;11.23;;
34573;SDS011;20809;49.594;8.734;2023-04-30T04:11:23;14.27;;;10.88;;
34573;SDS011;20809;49.594;8.734;2023-04-30T04:14:25;13.82;;;10.85;;
34573;SDS011;20809;49.594;8.734;2023-04-30T04:17:26;11.05;;;9.90;;
34573;SDS011;20809;49.594;8.734;2023-04-30T04:20:27;12.75;;;10.82;;
34573;SDS011;20809;49.594;8.734;2023-04-30T04:23:28;11.68;;;10.35;;
34573;SDS011;20809;49.594;8.734;2023-04-30T04:26:29;14.33;;;11.90;;
34573;SDS011;20809;49.594;8.734;2023-04-30T04:29:30;16.95;;;12.20;;
34573;SDS011;20809;49.594;8.734;2023-04-30T04:32:31;19.55;;;11.82;;
34573;SDS011;20809;49.594;8.734;2023-04-30T04:35:40;14.43;;;10.43;;
34573;SDS011;20809;49.594;8.734;2023-04-30T04:38:41;15.38;;;11.52;;
34573;SDS011;20809;49.594;8.734;2023-04-30T04:41:42;15.90;;;11.07;;
34573;SDS011;20809;49.594;8.734;2023-04-30T04:44:43;12.50;;;10.73;;
34573;SDS011;20809;49.594;8.734;2023-04-30T04:47:44;14.20;;;11.52;;
34573;SDS011;20809;49.594;8.734;2023-04-30T04:50:46;13.98;;;10.18;;
34573;SDS011;20809;49.594;8.734;2023-04-30T04:53:49;13.93;;;10.82;;
34573;SDS011;20809;49.594;8.734;2023-04-30T05:00:04;14.98;;;11.60;;
34573;SDS011;20809;49.594;8.734;2023-04-30T05:03:32;12.25;;;10.70;;
34573;SDS011;20809;49.594;8.734;2023-04-30T05:06:35;13.10;;;11.15;;
34573;SDS011;20809;49.594;8.734;2023-04-30T05:09:36;16.00;;;10.70;;
34573;SDS011;20809;49.594;8.734;2023-04-30T05:12:37;14.23;;;11.77;;
34573;SDS011;20809;49.594;8.734;2023-04-30T05:15:37;16.03;;;10.30;;
34573;SDS011;20809;49.594;8.734;2023-04-30T05:18:38;14.53;;;10.67;;
34573;SDS011;20809;49.594;8.734;2023-04-30T05:21:38;11.43;;;9.83;;
34573;SDS011;20809;49.594;8.734;2023-04-30T05:24:39;12.93;;;10.05;;
34573;SDS011;20809;49.594;8.734;2023-04-30T05:27:39;12.53;;;9.70;;
34573;SDS011;20809;49.594;8.734;2023-04-30T05:30:40;10.10;;;9.10;;
34573;SDS011;20809;49.594;8.734;2023-04-30T05:33:41;10.80;;;9.07;;
34573;SDS011;20809;49.594;8.734;2023-04-30T05:36:41;9.90;;;8.77;;
34573;SDS011;20809;49.594;8.734;2023-04-30T05:39:42;10.37;;;8.37;;
34573;SDS011;20809;49.594;8.734;2023-04-30T05:42:42;9.50;;;7.70;;
34573;SDS011;20809;49.594;8.734;2023-04-30T05:45:43;9.37;;;8.37;;
34573;SDS011;20809;49.594;8.734;2023-04-30T05:48:44;8.60;;;7.70;;
34573;SDS011;20809;49.594;8.734;2023-04-30T05:51:44;7.33;;;6.23;;
34573;SDS011;20809;49.594;8.734;2023-04-30T05:54:45;7.67;;;6.00;;
34573;SDS011;20809;49.594;8.734;2023-04-30T05:57:47;7.47;;;5.70;;
34573;SDS011;20809;49.594;8.734;2023-04-30T06:00:48;6.03;;;5.45;;
34573;SDS011;20809;49.594;8.734;2023-04-30T06:03:50;8.52;;;6.20;;
34573;SDS011;20809;49.594;8.734;2023-04-30T06:06:51;6.75;;;5.32;;
34573;SDS011;20809;49.594;8.734;2023-04-30T06:09:51;10.30;;;5.30;;
34573;SDS011;20809;49.594;8.734;2023-04-30T06:12:52;8.83;;;6.27;;
34573;SDS011;20809;49.594;8.734;2023-04-30T06:15:52;8.10;;;5.53;;
34573;SDS011;20809;49.594;8.734;2023-04-30T06:18:53;6.72;;;5.90;;
34573;SDS011;20809;49.594;8.734;2023-04-30T06:21:54;9.48;;;6.03;;
34573;SDS011;20809;49.594;8.734;2023-04-30T06:24:54;7.07;;;6.38;;
34573;SDS011;20809;49.594;8.734;2023-04-30T06:27:56;7.20;;;5.68;;
34573;SDS011;20809;49.594;8.734;2023-04-30T06:30:57;7.00;;;5.35;;
34573;SDS011;20809;49.594;8.734;2023-04-30T06:33:58;9.20;;;6.47;;
34573;SDS011;20809;49.594;8.734;2023-04-30T06:36:59;11.07;;;6.13;;
34573;SDS011;20809;49.594;8.734;2023-04-30T06:40:00;6.68;;;5.78;;
34573;SDS011;20809;49.594;8.734;2023-04-30T06:46:01;7.57;;;5.30;;
34573;SDS011;20809;49.594;8.734;2023-04-30T06:49:02;5.72;;;4.88;;
34573;SDS011;20809;49.594;8.734;2023-04-30T06:52:03;7.25;;;5.00;;
34573;SDS011;20809;49.594;8.734;2023-04-30T06:55:04;7.03;;;5.50;;
34573;SDS011;20809;49.594;8.734;2023-04-30T06:58:08;5.40;;;4.90;;
34573;SDS011;20809;49.594;8.734;2023-04-30T07:01:09;5.85;;;5.00;;
34573;SDS011;20809;49.594;8.734;2023-04-30T07:04:10;5.97;;;4.78;;
34573;SDS011;20809;49.594;8.734;2023-04-30T07:07:11;5.88;;;4.60;;
34573;SDS011;20809;49.594;8.734;2023-04-30T07:10:11;5.32;;;4.70;;
34573;SDS011;20809;49.594;8.734;2023-04-30T07:13:12;6.88;;;6.18;;
34573;SDS011;20809;49.594;8.734;2023-04-30T07:16:13;4.65;;;4.18;;
34573;SDS011;20809;49.594;8.734;2023-04-30T07:19:15;4.85;;;4.32;;
34573;SDS011;20809;49.594;8.734;2023-04-30T07:22:19;5.05;;;4.55;;
34573;SDS011;20809;49.594;8.734;2023-04-30T07:25:20;6.93;;;4.68;;
34573;SDS011;20809;49.594;8.734;2023-04-30T07:28:20;6.85;;;4.40;;
34573;SDS011;20809;49.594;8.734;2023-04-30T07:31:21;6.10;;;4.78;;
34573;SDS011;20809;49.594;8.734;2023-04-30T07:34:22;5.88;;;4.75;;
34573;SDS011;20809;49.594;8.734;2023-04-30T07:37:23;4.95;;;4.50;;
34573;SDS011;20809;49.594;8.734;2023-04-30T07:40:24;6.88;;;5.60;;
34573;SDS011;20809;49.594;8.734;2023-04-30T07:43:24;8.77;;;4.47;;
34573;SDS011;20809;49.594;8.734;2023-04-30T07:46:25;7.22;;;5.40;;
34573;SDS011;20809;49.594;8.734;2023-04-30T07:49:27;6.28;;;4.88;;
34573;SDS011;20809;49.594;8.734;2023-04-30T07:52:28;5.22;;;3.97;;
34573;SDS011;20809;49.594;8.734;2023-04-30T07:55:29;8.93;;;4.75;;
34573;SDS011;20809;49.594;8.734;2023-04-30T07:58:30;4.55;;;3.90;;
34573;SDS011;20809;49.594;8.734;2023-04-30T08:01:30;5.65;;;4.55;;
34573;SDS011;20809;49.594;8.734;2023-04-30T08:04:31;5.22;;;4.70;;
34573;SDS011;20809;49.594;8.734;2023-04-30T08:07:32;6.07;;;4.50;;
34573;SDS011;20809;49.594;8.734;2023-04-30T08:10:33;7.40;;;5.15;;
34573;SDS011;20809;49.594;8.734;2023-04-30T08:13:34;5.90;;;4.40;;
34573;SDS011;20809;49.594;8.734;2023-04-30T08:16:35;8.85;;;5.15;;
34573;SDS011;20809;49.594;8.734;2023-04-30T08:19:36;5.65;;;4.13;;
34573;SDS011;20809;49.594;8.734;2023-04-30T08:22:37;6.18;;;3.78;;
34573;SDS011;20809;49.594;8.734;2023-04-30T08:25:38;4.57;;;3.72;;
34573;SDS011;20809;49.594;8.734;2023-04-30T08:28:39;8.05;;;3.65;;
34573;SDS011;20809;49.594;8.734;2023-04-30T08:31:42;4.95;;;3.70;;
34573;SDS011;20809;49.594;8.734;2023-04-30T08:34:43;5.07;;;3.78;;
34573;SDS011;20809;49.594;8.734;2023-04-30T08:37:44;5.72;;;4.05;;
34573;SDS011;20809;49.594;8.734;2023-04-30T08:40:46;5.60;;;3.85;;
34573;SDS011;20809;49.594;8.734;2023-04-30T08:43:52;5.25;;;3.47;;
34573;SDS011;20809;49.594;8.734;2023-04-30T08:46:53;4.38;;;3.30;;
34573;SDS011;20809;49.594;8.734;2023-04-30T08:49:54;4.72;;;4.18;;
34573;SDS011;20809;49.594;8.734;2023-04-30T08:52:56;3.50;;;3.05;;
34573;SDS011;20809;49.594;8.734;2023-04-30T08:56:04;7.45;;;3.40;;
34573;SDS011;20809;49.594;8.734;2023-04-30T08:59:05;3.50;;;3.15;;
34573;SDS011;20809;49.594;8.734;2023-04-30T09:02:06;5.93;;;3.25;;
34573;SDS011;20809;49.594;8.734;2023-04-30T09:05:12;3.00;;;2.75;;
34573;SDS011;20809;49.594;8.734;2023-04-30T09:08:17;2.85;;;2.55;;
34573;SDS011;20809;49.594;8.734;2023-04-30T09:11:20;5.03;;;3.60;;
34573;SDS011;20809;49.594;8.734;2023-04-30T09:14:25;3.58;;;2.60;;
34573;SDS011;20809;49.594;8.734;2023-04-30T09:17:26;4.70;;;2.58;;
34573;SDS011;20809;49.594;8.734;2023-04-30T09:20:27;3.80;;;2.58;;
34573;SDS011;20809;49.594;8.734;2023-04-30T09:23:28;3.35;;;2.75;;
34573;SDS011;20809;49.594;8.734;2023-04-30T09:26:33;3.67;;;2.72;;
34573;SDS011;20809;49.594;8.734;2023-04-30T09:29:36;2.67;;;2.35;;
34573;SDS011;20809;49.594;8.734;2023-04-30T09:32:49;3.60;;;2.33;;
34573;SDS011;20809;49.594;8.734;2023-04-30T09:35:54;3.03;;;2.22;;
34573;SDS011;20809;49.594;8.734;2023-04-30T09:38:55;2.75;;;2.35;;
34573;SDS011;20809;49.594;8.734;2023-04-30T09:42:29;2.13;;;2.03;;
34573;SDS011;20809;49.594;8.734;2023-04-30T09:45:23;2.17;;;1.90;;
34573;SDS011;20809;49.594;8.734;2023-04-30T09:48:24;2.90;;;2.25;;
34573;SDS011;20809;49.594;8.734;2023-04-30T09:51:27;2.78;;;2.40;;
34573;SDS011;20809;49.594;8.734;2023-04-30T09:54:28;3.45;;;2.53;;
34573;SDS011;20809;49.594;8.734;2023-04-30T09:57:30;2.80;;;1.80;;
34573;SDS011;20809;49.594;8.734;2023-04-30T10:00:35;3.08;;;1.92;;
34573;SDS011;20809;49.594;8.734;2023-04-30T10:03:38;3.38;;;2.00;;
34573;SDS011;20809;49.594;8.734;2023-04-30T10:06:40;2.05;;;1.85;;
34573;SDS011;20809;49.594;8.734;2023-04-30T10:13:09;2.17;;;1.98;;
34573;SDS011;20809;49.594;8.734;2023-04-30T10:16:14;4.15;;;1.95;;
34573;SDS011;20809;49.594;8.734;2023-04-30T10:19:36;2.85;;;1.85;;
34573;SDS011;20809;49.594;8.734;2023-04-30T10:22:40;1.90;;;1.67;;
34573;SDS011;20809;49.594;8.734;2023-04-30T10:25:42;2.33;;;1.70;;
34573;SDS011;20809;49.594;8.734;2023-04-30T10:28:44;2.13;;;1.90;;
34573;SDS011;20809;49.594;8.734;2023-04-30T10:31:48;2.67;;;2.08;;
34573;SDS011;20809;49.594;8.734;2023-04-30T10:38:23;4.07;;;2.03;;
34573;SDS011;20809;49.594;8.734;2023-04-30T10:41:26;1.90;;;1.75;;
34573;SDS011;20809;49.594;8.734;2023-04-30T10:44:30;3.15;;;1.73;;
34573;SDS011;20809;49.594;8.734;2023-04-30T10:47:32;2.90;;;1.40;;
34573;SDS011;20809;49.594;8.734;2023-04-30T10:50:39;4.03;;;1.73;;
34573;SDS011;20809;49.594;8.734;2023-04-30T10:53:44;2.50;;;1.90;;
34573;SDS011;20809;49.594;8.734;2023-04-30T10:56:46;2.00;;;1.80;;
34573;SDS011;20809;49.594;8.734;2023-04-30T11:00:17;7.55;;;2.13;;
34573;SDS011;20809;49.594;8.734;2023-04-30T11:03:17;2.40;;;1.60;;
34573;SDS011;20809;49.594;8.734;2023-04-30T11:06:21;2.55;;;1.50;;
34573;SDS011;20809;49.594;8.734;2023-04-30T11:09:41;2.95;;;1.83;;
34573;SDS011;20809;49.594;8.734;2023-04-30T11:12:46;2.00;;;1.38;;
34573;SDS011;20809;49.594;8.734;2023-04-30T11:15:48;1.33;;;1.23;;
34573;SDS011;20809;49.594;8.734;2023-04-30T11:18:50;2.47;;;1.20;;
34573;SDS011;20809;49.594;8.734;2023-04-30T11:25:05;2.92;;;1.33;;
34573;SDS011;20809;49.594;8.734;2023-04-30T11:28:31;2.78;;;1.30;;
34573;SDS011;20809;49.594;8.734;2023-04-30T11:31:33;2.00;;;1.40;;
34573;SDS011;20809;49.594;8.734;2023-04-30T11:34:35;1.13;;;1.10;;
34573;SDS011;20809;49.594;8.734;2023-04-30T11:37:38;2.70;;;1.38;;
34573;SDS011;20809;49.594;8.734;2023-04-30T11:40:42;1.10;;;1.00;;
34573;SDS011;20809;49.594;8.734;2023-04-30T11:43:43;2.25;;;1.13;;
34573;SDS011;20809;49.594;8.734;2023-04-30T11:46:44;2.53;;;1.27;;
34573;SDS011;20809;49.594;8.734;2023-04-30T11:49:45;2.53;;;1.05;;
34573;SDS011;20809;49.594;8.734;2023-04-30T11:52:50;2.00;;;1.33;;
34573;SDS011;20809;49.594;8.734;2023-04-30T11:55:52;1.90;;;1.00;;
34573;SDS011;20809;49.594;8.734;2023-04-30T11:58:54;1.73;;;1.30;;
34573;SDS011;20809;49.594;8.734;2023-04-30T12:01:55;1.50;;;1.40;;
34573;SDS011;20809;49.594;8.734;2023-04-30T12:04:56;2.60;;;1.27;;
34573;SDS011;20809;49.594;8.734;2023-04-30T12:08:01;1.75;;;1.25;;
34573;SDS011;20809;49.594;8.734;2023-04-30T12:11:17;3.63;;;1.20;;
34573;SDS011;20809;49.594;8.734;2023-04-30T12:14:28;1.27;;;1.10;;
34573;SDS011;20809;49.594;8.734;2023-04-30T12:17:33;1.20;;;1.10;;
34573;SDS011;20809;49.594;8.734;2023-04-30T12:20:34;1.67;;;1.13;;
34573;SDS011;20809;49.594;8.734;2023-04-30T12:23:35;2.25;;;1.60;;
34573;SDS011;20809;49.594;8.734;2023-04-30T12:26:36;1.60;;;0.85;;
34573;SDS011;20809;49.594;8.734;2023-04-30T12:29:39;2.70;;;1.00;;
34573;SDS011;20809;49.594;8.734;2023-04-30T12:32:44;2.05;;;1.10;;
34573;SDS011;20809;49.594;8.734;2023-04-30T12:35:47;2.22;;;0.93;;
34573;SDS011;20809;49.594;8.734;2023-04-30T12:38:59;1.67;;;1.20;;
34573;SDS011;20809;49.594;8.734;2023-04-30T12:42:07;0.80;;;0.80;;
34573;SDS011;20809;49.594;8.734;2023-04-30T12:48:10;1.80;;;0.98;;
34573;SDS011;20809;49.594;8.734;2023-04-30T12:51:11;2.83;;;1.05;;
34573;SDS011;20809;49.594;8.734;2023-04-30T12:54:27;1.63;;;1.13;;
34573;SDS011;20809;49.594;8.734;2023-04-30T12:57:30;2.05;;;0.75;;
34573;SDS011;20809;49.594;8.734;2023-04-30T13:03:43;1.67;;;0.90;;
34573;SDS011;20809;49.594;8.734;2023-04-30T13:06:43;2.90;;;1.20;;
34573;SDS011;20809;49.594;8.734;2023-04-30T13:09:44;2.05;;;0.98;;
34573;SDS011;20809;49.594;8.734;2023-04-30T13:12:45;2.45;;;1.20;;
34573;SDS011;20809;49.594;8.734;2023-04-30T13:15:45;1.93;;;1.00;;
34573;SDS011;20809;49.594;8.734;2023-04-30T13:18:47;2.20;;;1.25;;
34573;SDS011;20809;49.594;8.734;2023-04-30T13:21:47;2.33;;;1.15;;
34573;SDS011;20809;49.594;8.734;2023-04-30T13:24:48;0.90;;;0.85;;
34573;SDS011;20809;49.594;8.734;2023-04-30T13:27:49;0.93;;;0.80;;
34573;SDS011;20809;49.594;8.734;2023-04-30T13:30:49;1.40;;;1.30;;
34573;SDS011;20809;49.594;8.734;2023-04-30T13:33:50;1.15;;;1.05;;
34573;SDS011;20809;49.594;8.734;2023-04-30T13:36:53;3.00;;;0.90;;
34573;SDS011;20809;49.594;8.734;2023-04-30T13:39:54;2.03;;;1.20;;
34573;SDS011;20809;49.594;8.734;2023-04-30T13:42:54;1.13;;;0.80;;
34573;SDS011;20809;49.594;8.734;2023-04-30T13:45:55;1.88;;;1.02;;
34573;SDS011;20809;49.594;8.734;2023-04-30T13:48:57;2.13;;;1.10;;
34573;SDS011;20809;49.594;8.734;2023-04-30T13:54:59;0.80;;;0.80;;
34573;SDS011;20809;49.594;8.734;2023-04-30T13:58:00;1.98;;;1.38;;
34573;SDS011;20809;49.594;8.734;2023-04-30T14:01:01;0.70;;;0.70;;
34573;SDS011;20809;49.594;8.734;2023-04-30T14:04:01;1.20;;;1.10;;
34573;SDS011;20809;49.594;8.734;2023-04-30T14:07:02;1.00;;;1.00;;
34573;SDS011;20809;49.594;8.734;2023-04-30T14:13:04;3.20;;;2.58;;
34573;SDS011;20809;49.594;8.734;2023-04-30T14:16:05;1.25;;;1.15;;
34573;SDS011;20809;49.594;8.734;2023-04-30T14:19:06;0.90;;;0.90;;
34573;SDS011;20809;49.594;8.734;2023-04-30T14:22:06;1.35;;;1.00;;
34573;SDS011;20809;49.594;8.734;2023-04-30T14:25:07;1.95;;;1.10;;
34573;SDS011;20809;49.594;8.734;2023-04-30T14:28:08;0.80;;;0.80;;
34573;SDS011;20809;49.594;8.734;2023-04-30T14:31:09;1.10;;;0.80;;
34573;SDS011;20809;49.594;8.734;2023-04-30T14:34:10;1.23;;;0.80;;
34573;SDS011;20809;49.594;8.734;2023-04-30T14:37:11;1.63;;;0.65;;
34573;SDS011;20809;49.594;8.734;2023-04-30T14:40:12;2.13;;;0.70;;
34573;SDS011;20809;49.594;8.734;2023-04-30T14:43:14;2.20;;;0.80;;
34573;SDS011;20809;49.594;8.734;2023-04-30T14:46:15;0.70;;;0.70;;
34573;SDS011;20809;49.594;8.734;2023-04-30T14:49:18;0.80;;;0.70;;
34573;SDS011;20809;49.594;8.734;2023-04-30T14:52:19;0.80;;;0.80;;
34573;SDS011;20809;49.594;8.734;2023-04-30T14:55:20;1.02;;;0.93;;
34573;SDS011;20809;49.594;8.734;2023-04-30T14:58:21;0.70;;;0.70;;
34573;SDS011;20809;49.594;8.734;2023-04-30T15:01:22;3.55;;;1.15;;
34573;SDS011;20809;49.594;8.734;2023-04-30T15:04:23;1.25;;;1.00;;
34573;SDS011;20809;49.594;8.734;2023-04-30T15:07:24;2.92;;;1.13;;
34573;SDS011;20809;49.594;8.734;2023-04-30T15:10:28;2.35;;;1.00;;
34573;SDS011;20809;49.594;8.734;2023-04-30T15:13:28;0.98;;;0.60;;
34573;SDS011;20809;49.594;8.734;2023-04-30T15:16:29;1.13;;;0.90;;
34573;SDS011;20809;49.594;8.734;2023-04-30T15:19:29;3.65;;;0.90;;
34573;SDS011;20809;49.594;8.734;2023-04-30T15:22:30;1.50;;;0.90;;
34573;SDS011;20809;49.594;8.734;2023-04-30T15:25:32;0.60;;;0.60;;
34573;SDS011;20809;49.594;8.734;2023-04-30T15:31:34;0.60;;;0.60;;
34573;SDS011;20809;49.594;8.734;2023-04-30T15:34:34;2.78;;;0.80;;
34573;SDS011;20809;49.594;8.734;2023-04-30T15:37:35;1.48;;;0.95;;
34573;SDS011;20809;49.594;8.734;2023-04-30T15:40:39;2.35;;;0.70;;
34573;SDS011;20809;49.594;8.734;2023-04-30T15:43:40;0.88;;;0.80;;
34573;SDS011;20809;49.594;8.734;2023-04-30T15:46:40;1.00;;;0.70;;
34573;SDS011;20809;49.594;8.734;2023-04-30T15:49:41;1.63;;;1.00;;
34573;SDS011;20809;49.594;8.734;2023-04-30T15:52:42;0.85;;;0.85;;
34573;SDS011;20809;49.594;8.734;2023-04-30T15:55:43;1.00;;;0.88;;
34573;SDS011;20809;49.594;8.734;2023-04-30T15:58:45;0.88;;;0.88;;
34573;SDS011;20809;49.594;8.734;2023-04-30T16:01:46;1.15;;;0.80;;
34573;SDS011;20809;49.594;8.734;2023-04-30T16:04:46;0.82;;;0.65;;
34573;SDS011;20809;49.594;8.734;2023-04-30T16:07:48;0.57;;;0.57;;
34573;SDS011;20809;49.594;8.734;2023-04-30T16:10:48;2.13;;;0.60;;
34573;SDS011;20809;49.594;8.734;2023-04-30T16:13:49;1.00;;;0.80;;
34573;SDS011;20809;49.594;8.734;2023-04-30T16:16:53;0.60;;;0.60;;
34573;SDS011;20809;49.594;8.734;2023-04-30T16:19:54;1.73;;;1.20;;
34573;SDS011;20809;49.594;8.734;2023-04-30T16:22:58;0.60;;;0.50;;
34573;SDS011;20809;49.594;8.734;2023-04-30T16:25:58;3.97;;;0.80;;
34573;SDS011;20809;49.594;8.734;2023-04-30T16:29:02;2.08;;;0.77;;
34573;SDS011;20809;49.594;8.734;2023-04-30T16:32:03;1.38;;;0.52;;
34573;SDS011;20809;49.594;8.734;2023-04-30T16:35:04;0.95;;;0.85;;
34573;SDS011;20809;49.594;8.734;2023-04-30T16:38:05;0.93;;;0.90;;
34573;SDS011;20809;49.594;8.734;2023-04-30T16:41:06;1.63;;;1.50;;
34573;SDS011;20809;49.594;8.734;2023-04-30T16:44:07;1.80;;;0.82;;
34573;SDS011;20809;49.594;8.734;2023-04-30T16:47:09;0.88;;;0.65;;
34573;SDS011;20809;49.594;8.734;2023-04-30T16:50:13;1.23;;;0.80;;
34573;SDS011;20809;49.594;8.734;2023-04-30T16:53:14;0.65;;;0.65;;
34573;SDS011;20809;49.594;8.734;2023-04-30T16:56:15;0.90;;;0.80;;
34573;SDS011;20809;49.594;8.734;2023-04-30T16:59:15;1.83;;;1.05;;
34573;SDS011;20809;49.594;8.734;2023-04-30T17:02:16;1.08;;;0.80;;
34573;SDS011;20809;49.594;8.734;2023-04-30T17:05:17;1.10;;;0.80;;
34573;SDS011;20809;49.594;8.734;2023-04-30T17:08:18;0.70;;;0.70;;
34573;SDS011;20809;49.594;8.734;2023-04-30T17:11:19;0.50;;;0.50;;
34573;SDS011;20809;49.594;8.734;2023-04-30T17:14:22;1.02;;;0.60;;
34573;SDS011;20809;49.594;8.734;2023-04-30T17:17:25;0.73;;;0.70;;
34573;SDS011;20809;49.594;8.734;2023-04-30T17:20:26;0.80;;;0.80;;
34573;SDS011;20809;49.594;8.734;2023-04-30T17:23:27;1.20;;;0.80;;
34573;SDS011;20809;49.594;8.734;2023-04-30T17:26:30;0.50;;;0.50;;
34573;SDS011;20809;49.594;8.734;2023-04-30T17:29:31;2.42;;;0.75;;
34573;SDS011;20809;49.594;8.734;2023-04-30T17:32:34;0.73;;;0.70;;
34573;SDS011;20809;49.594;8.734;2023-04-30T17:35:35;0.70;;;0.70;;
34573;SDS011;20809;49.594;8.734;2023-04-30T17:38:36;1.17;;;0.70;;
34573;SDS011;20809;49.594;8.734;2023-04-30T17:41:40;2.05;;;0.63;;
34573;SDS011;20809;49.594;8.734;2023-04-30T17:44:41;1.55;;;0.70;;
34573;SDS011;20809;49.594;8.734;2023-04-30T17:47:41;1.25;;;0.60;;
34573;SDS011;20809;49.594;8.734;2023-04-30T17:50:42;1.00;;;0.57;;
34573;SDS011;20809;49.594;8.734;2023-04-30T17:53:43;2.22;;;0.60;;
34573;SDS011;20809;49.594;8.734;2023-04-30T17:56:44;0.68;;;0.60;;
34573;SDS011;20809;49.594;8.734;2023-04-30T17:59:45;0.50;;;0.50;;
34573;SDS011;20809;49.594;8.734;2023-04-30T18:02:46;0.40;;;0.40;;
34573;SDS011;20809;49.594;8.734;2023-04-30T18:05:47;0.50;;;0.50;;
34573;SDS011;20809;49.594;8.734;2023-04-30T18:08:47;0.60;;;0.60;;
34573;SDS011;20809;49.594;8.734;2023-04-30T18:11:48;1.42;;;0.50;;
34573;SDS011;20809;49.594;8.734;2023-04-30T18:14:49;0.60;;;0.60;;
34573;SDS011;20809;49.594;8.734;2023-04-30T18:17:50;0.43;;;0.43;;
34573;SDS011;20809;49.594;8.734;2023-04-30T18:23:52;0.60;;;0.57;;
34573;SDS011;20809;49.594;8.734;2023-04-30T18:26:54;0.80;;;0.60;;
34573;SDS011;20809;49.594;8.734;2023-04-30T18:29:55;0.50;;;0.50;;
34573;SDS011;20809;49.594;8.734;2023-04-30T18:32:55;0.68;;;0.60;;
34573;SDS011;20809;49.594;8.734;2023-04-30T18:35:56;0.65;;;0.65;;
34573;SDS011;20809;49.594;8.734;2023-04-30T18:38:59;2.33;;;0.63;;
34573;SDS011;20809;49.594;8.734;2023-04-30T18:42:01;0.95;;;0.60;;
34573;SDS011;20809;49.594;8.734;2023-04-30T18:45:03;0.82;;;0.60;;
34573;SDS011;20809;49.594;8.734;2023-04-30T18:48:04;0.85;;;0.60;;
34573;SDS011;20809;49.594;8.734;2023-04-30T18:51:05;2.75;;;0.70;;
34573;SDS011;20809;49.594;8.734;2023-04-30T18:54:06;0.47;;;0.47;;
34573;SDS011;20809;49.594;8.734;2023-04-30T18:57:06;0.63;;;0.57;;
34573;SDS011;20809;49.594;8.734;2023-04-30T19:00:11;1.45;;;0.60;;
34573;SDS011;20809;49.594;8.734;2023-04-30T19:03:13;0.98;;;0.80;;
34573;SDS011;20809;49.594;8.734;2023-04-30T19:06:13;0.57;;;0.57;;
34573;SDS011;20809;49.594;8.734;2023-04-30T19:09:14;1.10;;;1.00;;
34573;SDS011;20809;49.594;8.734;2023-04-30T19:12:16;1.20;;;1.10;;
34573;SDS011;20809;49.594;8.734;2023-04-30T19:15:16;1.30;;;1.20;;